sensor_id;sensor_type;location;lat;lon;timestamp;temperature;humidity
35027;DHT22;60696;51.426;6.934;2022-12-18T00:00:59;-2.00;99.90
35027;DHT22;60696;51.426;6.934;2022-12-18T00:03:25;-2.00;99.90
35027;DHT22;60696;51.426;6.934;2022-12-18T00:05:51;-2.00;99.90
35027;DHT22;60696;51.426;6.934;2022-12-18T00:08:18;-2.00;99.90
35027;DHT22;60696;51.426;6.934;2022-12-18T00:10:45;-2.00;99.90
35027;DHT22;60696;51.426;6.934;2022-12-18T00:13:11;-2.00;99.90
35027;DHT22;60696;51.426;6.934;2022-12-18T00:15:38;-2.00;99.90
35027;DHT22;60696;51.426;6.934;2022-12-18T00:18:04;-2.00;99.90
35027;DHT22;60696;51.426;6.934;2022-12-18T00:20:30;-2.00;99.90
35027;DHT22;60696;51.426;6.934;2022-12-18T00:22:55;-1.90;99.90
35027;DHT22;60696;51.426;6.934;2022-12-18T00:25:21;-1.90;99.90
35027;DHT22;60696;51.426;6.934;2022-12-18T00:27:47;-1.90;99.90
35027;DHT22;60696;51.426;6.934;2022-12-18T00:30:12;-1.90;99.90
35027;DHT22;60696;51.426;6.934;2022-12-18T00:32:38;-1.90;99.90
35027;DHT22;60696;51.426;6.934;2022-12-18T00:35:05;-1.90;99.90
35027;DHT22;60696;51.426;6.934;2022-12-18T00:37:30;-1.80;99.90
35027;DHT22;60696;51.426;6.934;2022-12-18T00:39:56;-1.90;99.90
35027;DHT22;60696;51.426;6.934;2022-12-18T00:42:21;-1.90;99.90
35027;DHT22;60696;51.426;6.934;2022-12-18T00:45:06;-1.90;99.90
35027;DHT22;60696;51.426;6.934;2022-12-18T00:47:31;-1.90;99.90
35027;DHT22;60696;51.426;6.934;2022-12-18T00:49:57;-1.90;99.90
35027;DHT22;60696;51.426;6.934;2022-12-18T00:52:23;-2.00;99.90
35027;DHT22;60696;51.426;6.934;2022-12-18T00:54:48;-1.90;99.90
35027;DHT22;60696;51.426;6.934;2022-12-18T00:57:14;-1.90;99.90
35027;DHT22;60696;51.426;6.934;2022-12-18T00:59:39;-1.80;99.90
35027;DHT22;60696;51.426;6.934;2022-12-18T01:02:05;-1.80;99.90
35027;DHT22;60696;51.426;6.934;2022-12-18T01:04:34;-1.80;99.90
35027;DHT22;60696;51.426;6.934;2022-12-18T01:06:59;-1.80;99.90
35027;DHT22;60696;51.426;6.934;2022-12-18T01:09:25;-1.70;99.90
35027;DHT22;60696;51.426;6.934;2022-12-18T01:11:51;-1.70;99.90
35027;DHT22;60696;51.426;6.934;2022-12-18T01:14:17;-1.70;99.90
35027;DHT22;60696;51.426;6.934;2022-12-18T01:16:43;-1.60;99.90
35027;DHT22;60696;51.426;6.934;2022-12-18T01:19:08;-1.60;99.90
35027;DHT22;60696;51.426;6.934;2022-12-18T01:21:34;-1.60;99.90
35027;DHT22;60696;51.426;6.934;2022-12-18T01:23:59;-1.60;99.90
35027;DHT22;60696;51.426;6.934;2022-12-18T01:26:26;-1.60;99.90
35027;DHT22;60696;51.426;6.934;2022-12-18T01:28:55;-1.60;99.90
35027;DHT22;60696;51.426;6.934;2022-12-18T01:31:29;-1.60;99.90
35027;DHT22;60696;51.426;6.934;2022-12-18T01:33:56;-1.60;99.90
35027;DHT22;60696;51.426;6.934;2022-12-18T01:36:23;-1.60;99.90
35027;DHT22;60696;51.426;6.934;2022-12-18T01:38:50;-1.60;99.90
35027;DHT22;60696;51.426;6.934;2022-12-18T01:41:19;-1.50;99.90
35027;DHT22;60696;51.426;6.934;2022-12-18T01:43:54;-1.50;99.90
35027;DHT22;60696;51.426;6.934;2022-12-18T01:46:21;-1.60;99.90
35027;DHT22;60696;51.426;6.934;2022-12-18T01:49:00;-1.60;99.90
35027;DHT22;60696;51.426;6.934;2022-12-18T01:51:27;-1.60;99.90
35027;DHT22;60696;51.426;6.934;2022-12-18T01:53:54;-1.60;99.90
35027;DHT22;60696;51.426;6.934;2022-12-18T01:56:20;-1.60;99.90
35027;DHT22;60696;51.426;6.934;2022-12-18T01:58:48;-1.60;99.90
35027;DHT22;60696;51.426;6.934;2022-12-18T02:01:15;-1.60;99.90
35027;DHT22;60696;51.426;6.934;2022-12-18T02:03:42;-1.60;99.90
35027;DHT22;60696;51.426;6.934;2022-12-18T02:08:49;-1.50;99.90
35027;DHT22;60696;51.426;6.934;2022-12-18T02:14:38;-1.40;99.90
35027;DHT22;60696;51.426;6.934;2022-12-18T02:17:11;-1.40;99.90
35027;DHT22;60696;51.426;6.934;2022-12-18T02:20:16;-1.30;99.90
35027;DHT22;60696;51.426;6.934;2022-12-18T02:22:49;-1.40;99.90
35027;DHT22;60696;51.426;6.934;2022-12-18T02:27:46;-1.50;99.90
35027;DHT22;60696;51.426;6.934;2022-12-18T02:30:13;-1.50;99.90
35027;DHT22;60696;51.426;6.934;2022-12-18T02:32:42;-1.50;99.90
35027;DHT22;60696;51.426;6.934;2022-12-18T02:35:14;-1.40;99.90
35027;DHT22;60696;51.426;6.934;2022-12-18T02:37:42;-1.50;99.90
35027;DHT22;60696;51.426;6.934;2022-12-18T02:40:09;-1.40;99.90
35027;DHT22;60696;51.426;6.934;2022-12-18T02:42:35;-1.40;99.90
35027;DHT22;60696;51.426;6.934;2022-12-18T02:45:01;-1.30;99.90
35027;DHT22;60696;51.426;6.934;2022-12-18T02:47:32;-1.40;99.90
35027;DHT22;60696;51.426;6.934;2022-12-18T02:53:31;-1.40;99.90
35027;DHT22;60696;51.426;6.934;2022-12-18T02:56:21;-1.40;99.90
35027;DHT22;60696;51.426;6.934;2022-12-18T02:59:01;-1.40;99.90
35027;DHT22;60696;51.426;6.934;2022-12-18T03:04:26;-1.30;99.90
35027;DHT22;60696;51.426;6.934;2022-12-18T03:06:56;-1.30;99.90
35027;DHT22;60696;51.426;6.934;2022-12-18T03:09:34;-1.30;99.90
35027;DHT22;60696;51.426;6.934;2022-12-18T03:12:32;-1.20;99.90
35027;DHT22;60696;51.426;6.934;2022-12-18T03:15:19;-1.20;99.90
35027;DHT22;60696;51.426;6.934;2022-12-18T03:17:51;-1.20;99.90
35027;DHT22;60696;51.426;6.934;2022-12-18T03:20:19;-1.20;99.90
35027;DHT22;60696;51.426;6.934;2022-12-18T03:22:51;-1.20;99.90
35027;DHT22;60696;51.426;6.934;2022-12-18T03:25:18;-1.20;99.90
35027;DHT22;60696;51.426;6.934;2022-12-18T03:27:48;-1.20;99.90
35027;DHT22;60696;51.426;6.934;2022-12-18T03:30:15;-1.20;99.90
35027;DHT22;60696;51.426;6.934;2022-12-18T03:32:47;-1.20;99.90
35027;DHT22;60696;51.426;6.934;2022-12-18T03:35:18;-1.20;99.90
35027;DHT22;60696;51.426;6.934;2022-12-18T03:37:45;-1.20;99.90
35027;DHT22;60696;51.426;6.934;2022-12-18T03:40:10;-1.30;99.90
35027;DHT22;60696;51.426;6.934;2022-12-18T03:45:22;-1.30;99.90
35027;DHT22;60696;51.426;6.934;2022-12-18T03:50:22;-1.30;99.90
35027;DHT22;60696;51.426;6.934;2022-12-18T03:52:58;-1.30;99.90
35027;DHT22;60696;51.426;6.934;2022-12-18T03:55:27;-1.40;99.90
35027;DHT22;60696;51.426;6.934;2022-12-18T03:57:55;-1.30;99.90
35027;DHT22;60696;51.426;6.934;2022-12-18T04:00:21;-1.30;99.90
35027;DHT22;60696;51.426;6.934;2022-12-18T04:02:51;-1.30;99.90
35027;DHT22;60696;51.426;6.934;2022-12-18T04:05:18;-1.30;99.90
35027;DHT22;60696;51.426;6.934;2022-12-18T04:07:47;-1.40;99.90
35027;DHT22;60696;51.426;6.934;2022-12-18T04:10:14;-1.30;99.90
35027;DHT22;60696;51.426;6.934;2022-12-18T04:12:41;-1.40;99.90
35027;DHT22;60696;51.426;6.934;2022-12-18T04:15:08;-1.40;99.90
35027;DHT22;60696;51.426;6.934;2022-12-18T04:17:34;-1.40;99.90
35027;DHT22;60696;51.426;6.934;2022-12-18T04:19:59;-1.40;99.90
35027;DHT22;60696;51.426;6.934;2022-12-18T04:22:25;-1.40;99.90
35027;DHT22;60696;51.426;6.934;2022-12-18T04:24:51;-1.40;99.90
35027;DHT22;60696;51.426;6.934;2022-12-18T04:27:16;-1.40;99.90
35027;DHT22;60696;51.426;6.934;2022-12-18T04:29:42;-1.40;99.90
35027;DHT22;60696;51.426;6.934;2022-12-18T04:32:08;-1.40;99.90
35027;DHT22;60696;51.426;6.934;2022-12-18T04:34:33;-1.40;99.90
35027;DHT22;60696;51.426;6.934;2022-12-18T04:36:59;-1.40;99.90
35027;DHT22;60696;51.426;6.934;2022-12-18T04:39:25;-1.40;99.90
35027;DHT22;60696;51.426;6.934;2022-12-18T04:41:50;-1.40;99.90
35027;DHT22;60696;51.426;6.934;2022-12-18T04:44:16;-1.50;99.90
35027;DHT22;60696;51.426;6.934;2022-12-18T04:46:41;-1.60;99.90
35027;DHT22;60696;51.426;6.934;2022-12-18T04:49:07;-1.60;99.90
35027;DHT22;60696;51.426;6.934;2022-12-18T04:51:32;-1.70;99.90
35027;DHT22;60696;51.426;6.934;2022-12-18T04:53:58;-1.70;99.90
35027;DHT22;60696;51.426;6.934;2022-12-18T04:56:23;-1.70;99.90
35027;DHT22;60696;51.426;6.934;2022-12-18T04:58:49;-1.80;99.90
35027;DHT22;60696;51.426;6.934;2022-12-18T05:01:16;-1.80;99.90
35027;DHT22;60696;51.426;6.934;2022-12-18T05:03:43;-1.90;99.90
35027;DHT22;60696;51.426;6.934;2022-12-18T05:06:09;-2.00;99.90
35027;DHT22;60696;51.426;6.934;2022-12-18T05:08:35;-2.00;99.90
35027;DHT22;60696;51.426;6.934;2022-12-18T05:11:01;-2.20;99.90
35027;DHT22;60696;51.426;6.934;2022-12-18T05:13:27;-2.30;99.90
35027;DHT22;60696;51.426;6.934;2022-12-18T05:15:53;-2.20;99.90
35027;DHT22;60696;51.426;6.934;2022-12-18T05:18:19;-2.20;99.90
35027;DHT22;60696;51.426;6.934;2022-12-18T05:20:45;-2.10;99.90
35027;DHT22;60696;51.426;6.934;2022-12-18T05:23:10;-2.20;99.90
35027;DHT22;60696;51.426;6.934;2022-12-18T05:25:36;-2.20;99.90
35027;DHT22;60696;51.426;6.934;2022-12-18T05:28:01;-2.30;99.90
35027;DHT22;60696;51.426;6.934;2022-12-18T05:30:27;-2.30;99.90
35027;DHT22;60696;51.426;6.934;2022-12-18T05:32:53;-2.40;99.90
35027;DHT22;60696;51.426;6.934;2022-12-18T05:35:19;-2.20;99.90
35027;DHT22;60696;51.426;6.934;2022-12-18T05:37:44;-2.30;99.90
35027;DHT22;60696;51.426;6.934;2022-12-18T05:40:10;-2.30;99.90
35027;DHT22;60696;51.426;6.934;2022-12-18T05:42:36;-2.20;99.90
35027;DHT22;60696;51.426;6.934;2022-12-18T05:45:03;-2.30;99.90
35027;DHT22;60696;51.426;6.934;2022-12-18T05:47:28;-2.50;99.90
35027;DHT22;60696;51.426;6.934;2022-12-18T05:49:54;-2.60;99.90
35027;DHT22;60696;51.426;6.934;2022-12-18T05:52:20;-2.60;99.90
35027;DHT22;60696;51.426;6.934;2022-12-18T05:54:45;-2.70;99.90
35027;DHT22;60696;51.426;6.934;2022-12-18T05:57:11;-2.70;99.90
35027;DHT22;60696;51.426;6.934;2022-12-18T05:59:37;-2.80;99.90
35027;DHT22;60696;51.426;6.934;2022-12-18T06:02:02;-2.90;99.90
35027;DHT22;60696;51.426;6.934;2022-12-18T06:04:28;-2.90;99.90
35027;DHT22;60696;51.426;6.934;2022-12-18T06:06:57;-2.90;99.90
35027;DHT22;60696;51.426;6.934;2022-12-18T06:09:23;-3.00;99.90
35027;DHT22;60696;51.426;6.934;2022-12-18T06:11:49;-3.10;99.90
35027;DHT22;60696;51.426;6.934;2022-12-18T06:14:16;-3.10;99.90
35027;DHT22;60696;51.426;6.934;2022-12-18T06:16:42;-3.10;99.90
35027;DHT22;60696;51.426;6.934;2022-12-18T06:19:12;-3.20;99.90
35027;DHT22;60696;51.426;6.934;2022-12-18T06:21:38;-3.20;99.90
35027;DHT22;60696;51.426;6.934;2022-12-18T06:24:04;-3.30;99.90
35027;DHT22;60696;51.426;6.934;2022-12-18T06:26:30;-3.30;99.90
35027;DHT22;60696;51.426;6.934;2022-12-18T06:28:55;-3.30;99.90
35027;DHT22;60696;51.426;6.934;2022-12-18T06:31:21;-3.30;99.90
35027;DHT22;60696;51.426;6.934;2022-12-18T06:33:47;-3.30;99.90
35027;DHT22;60696;51.426;6.934;2022-12-18T06:36:13;-3.40;99.90
35027;DHT22;60696;51.426;6.934;2022-12-18T06:38:41;-3.40;99.90
35027;DHT22;60696;51.426;6.934;2022-12-18T06:41:16;-3.40;99.90
35027;DHT22;60696;51.426;6.934;2022-12-18T06:43:42;-3.40;99.90
35027;DHT22;60696;51.426;6.934;2022-12-18T06:46:08;-3.30;99.90
35027;DHT22;60696;51.426;6.934;2022-12-18T06:48:34;-3.20;99.90
35027;DHT22;60696;51.426;6.934;2022-12-18T06:51:00;-3.10;99.90
35027;DHT22;60696;51.426;6.934;2022-12-18T06:53:26;-3.00;99.90
35027;DHT22;60696;51.426;6.934;2022-12-18T06:55:51;-2.90;99.90
35027;DHT22;60696;51.426;6.934;2022-12-18T06:58:17;-3.10;99.90
35027;DHT22;60696;51.426;6.934;2022-12-18T07:00:43;-3.00;99.90
35027;DHT22;60696;51.426;6.934;2022-12-18T07:03:09;-2.70;99.90
35027;DHT22;60696;51.426;6.934;2022-12-18T07:05:40;-2.50;99.90
35027;DHT22;60696;51.426;6.934;2022-12-18T07:08:06;-2.40;99.90
35027;DHT22;60696;51.426;6.934;2022-12-18T07:10:32;-2.40;99.90
35027;DHT22;60696;51.426;6.934;2022-12-18T07:12:57;-2.60;99.90
35027;DHT22;60696;51.426;6.934;2022-12-18T07:15:23;-2.40;99.90
35027;DHT22;60696;51.426;6.934;2022-12-18T07:17:48;-2.30;99.90
35027;DHT22;60696;51.426;6.934;2022-12-18T07:20:14;-2.10;99.90
35027;DHT22;60696;51.426;6.934;2022-12-18T07:22:39;-2.10;99.90
35027;DHT22;60696;51.426;6.934;2022-12-18T07:25:06;-2.20;99.90
35027;DHT22;60696;51.426;6.934;2022-12-18T07:27:31;-2.20;99.90
35027;DHT22;60696;51.426;6.934;2022-12-18T07:29:57;-2.30;99.90
35027;DHT22;60696;51.426;6.934;2022-12-18T07:32:23;-2.30;99.90
35027;DHT22;60696;51.426;6.934;2022-12-18T07:34:48;-2.20;99.90
35027;DHT22;60696;51.426;6.934;2022-12-18T07:37:14;-2.30;99.90
35027;DHT22;60696;51.426;6.934;2022-12-18T07:39:39;-2.40;99.90
35027;DHT22;60696;51.426;6.934;2022-12-18T07:42:05;-2.60;99.90
35027;DHT22;60696;51.426;6.934;2022-12-18T07:44:49;-2.60;99.90
35027;DHT22;60696;51.426;6.934;2022-12-18T07:47:14;-2.60;99.90
35027;DHT22;60696;51.426;6.934;2022-12-18T07:49:40;-2.60;99.90
35027;DHT22;60696;51.426;6.934;2022-12-18T07:52:05;-2.60;99.90
35027;DHT22;60696;51.426;6.934;2022-12-18T07:54:31;-2.40;99.90
35027;DHT22;60696;51.426;6.934;2022-12-18T07:56:56;-2.20;99.90
35027;DHT22;60696;51.426;6.934;2022-12-18T07:59:22;-1.80;99.90
35027;DHT22;60696;51.426;6.934;2022-12-18T08:01:48;-1.60;99.90
35027;DHT22;60696;51.426;6.934;2022-12-18T08:04:13;-1.40;99.90
35027;DHT22;60696;51.426;6.934;2022-12-18T08:06:39;-1.20;99.90
35027;DHT22;60696;51.426;6.934;2022-12-18T08:09:04;-1.00;99.90
35027;DHT22;60696;51.426;6.934;2022-12-18T08:11:30;-0.80;99.90
35027;DHT22;60696;51.426;6.934;2022-12-18T08:13:56;-0.60;99.90
35027;DHT22;60696;51.426;6.934;2022-12-18T08:16:23;-0.50;99.90
35027;DHT22;60696;51.426;6.934;2022-12-18T08:18:49;-0.40;99.90
35027;DHT22;60696;51.426;6.934;2022-12-18T08:21:20;-0.20;99.90
35027;DHT22;60696;51.426;6.934;2022-12-18T08:23:48;-0.10;99.90
35027;DHT22;60696;51.426;6.934;2022-12-18T08:26:14;0.00;99.90
35027;DHT22;60696;51.426;6.934;2022-12-18T08:28:41;0.20;99.90
35027;DHT22;60696;51.426;6.934;2022-12-18T08:31:07;0.40;99.90
35027;DHT22;60696;51.426;6.934;2022-12-18T08:33:34;0.70;99.90
35027;DHT22;60696;51.426;6.934;2022-12-18T08:36:00;1.10;99.90
35027;DHT22;60696;51.426;6.934;2022-12-18T08:38:26;1.70;99.90
35027;DHT22;60696;51.426;6.934;2022-12-18T08:41:03;2.50;99.90
35027;DHT22;60696;51.426;6.934;2022-12-18T08:43:29;3.10;98.30
35027;DHT22;60696;51.426;6.934;2022-12-18T08:46:13;3.90;95.30
35027;DHT22;60696;51.426;6.934;2022-12-18T08:48:41;4.60;90.80
35027;DHT22;60696;51.426;6.934;2022-12-18T08:51:07;5.30;83.70
35027;DHT22;60696;51.426;6.934;2022-12-18T08:53:35;5.00;79.20
35027;DHT22;60696;51.426;6.934;2022-12-18T08:56:01;5.80;75.00
35027;DHT22;60696;51.426;6.934;2022-12-18T08:58:26;6.70;72.80
35027;DHT22;60696;51.426;6.934;2022-12-18T09:00:52;6.10;68.40
35027;DHT22;60696;51.426;6.934;2022-12-18T09:03:18;6.10;70.40
35027;DHT22;60696;51.426;6.934;2022-12-18T09:05:45;6.00;69.70
35027;DHT22;60696;51.426;6.934;2022-12-18T09:08:11;6.10;68.50
35027;DHT22;60696;51.426;6.934;2022-12-18T09:10:44;6.30;68.90
35027;DHT22;60696;51.426;6.934;2022-12-18T09:13:11;6.30;68.40
35027;DHT22;60696;51.426;6.934;2022-12-18T09:15:41;5.40;67.40
35027;DHT22;60696;51.426;6.934;2022-12-18T09:18:07;5.30;71.90
35027;DHT22;60696;51.426;6.934;2022-12-18T09:20:33;5.10;70.10
35027;DHT22;60696;51.426;6.934;2022-12-18T09:22:58;5.00;72.20
35027;DHT22;60696;51.426;6.934;2022-12-18T09:25:24;5.00;72.50
35027;DHT22;60696;51.426;6.934;2022-12-18T09:27:49;5.10;73.30
35027;DHT22;60696;51.426;6.934;2022-12-18T09:30:15;4.40;72.90
35027;DHT22;60696;51.426;6.934;2022-12-18T09:32:40;4.10;74.90
35027;DHT22;60696;51.426;6.934;2022-12-18T09:35:06;3.90;75.10
35027;DHT22;60696;51.426;6.934;2022-12-18T09:37:32;3.70;74.70
35027;DHT22;60696;51.426;6.934;2022-12-18T09:39:57;3.70;76.30
35027;DHT22;60696;51.426;6.934;2022-12-18T09:42:23;3.50;79.20
35027;DHT22;60696;51.426;6.934;2022-12-18T09:44:52;3.50;80.60
35027;DHT22;60696;51.426;6.934;2022-12-18T09:47:38;3.60;80.60
35027;DHT22;60696;51.426;6.934;2022-12-18T09:50:29;3.20;81.20
35027;DHT22;60696;51.426;6.934;2022-12-18T09:52:57;3.40;82.10
35027;DHT22;60696;51.426;6.934;2022-12-18T09:55:34;3.20;81.40
35027;DHT22;60696;51.426;6.934;2022-12-18T09:58:19;3.30;85.00
35027;DHT22;60696;51.426;6.934;2022-12-18T10:00:46;3.40;82.40
35027;DHT22;60696;51.426;6.934;2022-12-18T10:03:13;3.40;81.60
35027;DHT22;60696;51.426;6.934;2022-12-18T10:12:02;4.00;83.90
35027;DHT22;60696;51.426;6.934;2022-12-18T10:19:56;4.40;83.10
35027;DHT22;60696;51.426;6.934;2022-12-18T10:28:10;4.40;78.70
35027;DHT22;60696;51.426;6.934;2022-12-18T10:30:38;4.30;81.40
35027;DHT22;60696;51.426;6.934;2022-12-18T10:33:04;4.10;82.60
35027;DHT22;60696;51.426;6.934;2022-12-18T10:35:30;4.00;82.10
35027;DHT22;60696;51.426;6.934;2022-12-18T10:38:29;3.90;85.00
35027;DHT22;60696;51.426;6.934;2022-12-18T10:43:30;3.90;85.20
35027;DHT22;60696;51.426;6.934;2022-12-18T10:46:07;4.20;84.70
35027;DHT22;60696;51.426;6.934;2022-12-18T10:51:35;4.00;85.50
35027;DHT22;60696;51.426;6.934;2022-12-18T10:54:22;4.40;86.60
35027;DHT22;60696;51.426;6.934;2022-12-18T10:56:48;4.70;85.80
35027;DHT22;60696;51.426;6.934;2022-12-18T10:59:16;4.30;86.30
35027;DHT22;60696;51.426;6.934;2022-12-18T11:01:53;4.20;84.50
35027;DHT22;60696;51.426;6.934;2022-12-18T11:04:27;4.00;85.80
35027;DHT22;60696;51.426;6.934;2022-12-18T11:09:26;4.00;88.20
35027;DHT22;60696;51.426;6.934;2022-12-18T11:11:53;3.90;87.70
35027;DHT22;60696;51.426;6.934;2022-12-18T11:14:42;3.80;90.10
35027;DHT22;60696;51.426;6.934;2022-12-18T11:17:22;3.70;88.50
35027;DHT22;60696;51.426;6.934;2022-12-18T11:19:58;3.70;90.00
35027;DHT22;60696;51.426;6.934;2022-12-18T11:22:29;3.70;88.20
35027;DHT22;60696;51.426;6.934;2022-12-18T11:27:26;3.70;90.80
35027;DHT22;60696;51.426;6.934;2022-12-18T11:29:52;3.60;88.90
35027;DHT22;60696;51.426;6.934;2022-12-18T11:32:37;3.50;90.40
35027;DHT22;60696;51.426;6.934;2022-12-18T11:35:32;3.40;89.80
35027;DHT22;60696;51.426;6.934;2022-12-18T11:38:06;3.30;87.40
35027;DHT22;60696;51.426;6.934;2022-12-18T11:40:38;3.40;87.60
35027;DHT22;60696;51.426;6.934;2022-12-18T11:43:45;3.40;90.50
35027;DHT22;60696;51.426;6.934;2022-12-18T11:48:54;3.50;90.20
35027;DHT22;60696;51.426;6.934;2022-12-18T11:51:35;3.40;90.30
35027;DHT22;60696;51.426;6.934;2022-12-18T11:54:12;3.30;90.20
35027;DHT22;60696;51.426;6.934;2022-12-18T11:56:55;3.20;90.90
35027;DHT22;60696;51.426;6.934;2022-12-18T12:02:33;3.20;91.40
35027;DHT22;60696;51.426;6.934;2022-12-18T12:16:17;3.20;96.50
35027;DHT22;60696;51.426;6.934;2022-12-18T12:22:13;3.30;97.00
35027;DHT22;60696;51.426;6.934;2022-12-18T12:35:48;3.10;98.40
35027;DHT22;60696;51.426;6.934;2022-12-18T12:40:45;2.90;97.00
35027;DHT22;60696;51.426;6.934;2022-12-18T12:43:19;2.80;97.10
35027;DHT22;60696;51.426;6.934;2022-12-18T12:51:17;2.70;97.50
35027;DHT22;60696;51.426;6.934;2022-12-18T12:53:43;2.70;97.20
35027;DHT22;60696;51.426;6.934;2022-12-18T12:56:13;2.70;99.90
35027;DHT22;60696;51.426;6.934;2022-12-18T12:59:06;2.60;98.60
35027;DHT22;60696;51.426;6.934;2022-12-18T13:07:06;2.50;99.90
35027;DHT22;60696;51.426;6.934;2022-12-18T13:12:59;2.40;99.90
35027;DHT22;60696;51.426;6.934;2022-12-18T13:20:36;2.30;99.90
35027;DHT22;60696;51.426;6.934;2022-12-18T13:25:51;2.40;99.90
35027;DHT22;60696;51.426;6.934;2022-12-18T13:31:00;2.30;99.90
35027;DHT22;60696;51.426;6.934;2022-12-18T13:38:39;2.10;99.90
35027;DHT22;60696;51.426;6.934;2022-12-18T13:43:53;2.20;99.90
35027;DHT22;60696;51.426;6.934;2022-12-18T13:46:45;2.20;99.90
35027;DHT22;60696;51.426;6.934;2022-12-18T13:49:25;2.10;99.90
35027;DHT22;60696;51.426;6.934;2022-12-18T13:51:53;2.10;99.90
35027;DHT22;60696;51.426;6.934;2022-12-18T13:54:35;2.20;99.90
35027;DHT22;60696;51.426;6.934;2022-12-18T13:57:02;2.20;99.90
35027;DHT22;60696;51.426;6.934;2022-12-18T13:59:36;2.20;99.90
35027;DHT22;60696;51.426;6.934;2022-12-18T14:02:14;2.20;99.90
35027;DHT22;60696;51.426;6.934;2022-12-18T14:04:40;2.20;99.90
35027;DHT22;60696;51.426;6.934;2022-12-18T14:07:24;2.30;99.90
35027;DHT22;60696;51.426;6.934;2022-12-18T14:09:53;2.20;99.90
35027;DHT22;60696;51.426;6.934;2022-12-18T14:12:32;2.20;99.90
35027;DHT22;60696;51.426;6.934;2022-12-18T14:15:32;2.20;99.90
35027;DHT22;60696;51.426;6.934;2022-12-18T14:20:44;2.20;99.90
35027;DHT22;60696;51.426;6.934;2022-12-18T14:23:45;2.30;99.90
35027;DHT22;60696;51.426;6.934;2022-12-18T14:26:31;2.20;99.90
35027;DHT22;60696;51.426;6.934;2022-12-18T14:29:17;2.20;99.90
35027;DHT22;60696;51.426;6.934;2022-12-18T14:31:43;2.20;99.90
35027;DHT22;60696;51.426;6.934;2022-12-18T14:34:15;2.30;99.90
35027;DHT22;60696;51.426;6.934;2022-12-18T14:36:41;2.20;99.90
35027;DHT22;60696;51.426;6.934;2022-12-18T14:39:17;2.20;99.90
35027;DHT22;60696;51.426;6.934;2022-12-18T14:41:43;2.10;99.90
35027;DHT22;60696;51.426;6.934;2022-12-18T14:44:12;2.10;99.90
35027;DHT22;60696;51.426;6.934;2022-12-18T14:46:39;2.00;99.90
35027;DHT22;60696;51.426;6.934;2022-12-18T14:49:32;2.10;99.90
35027;DHT22;60696;51.426;6.934;2022-12-18T14:52:13;2.00;99.90
35027;DHT22;60696;51.426;6.934;2022-12-18T14:54:46;2.00;99.90
35027;DHT22;60696;51.426;6.934;2022-12-18T14:57:22;2.00;99.90
35027;DHT22;60696;51.426;6.934;2022-12-18T14:59:48;1.90;99.90
35027;DHT22;60696;51.426;6.934;2022-12-18T15:07:40;1.90;99.90
35027;DHT22;60696;51.426;6.934;2022-12-18T15:10:35;2.00;99.90
35027;DHT22;60696;51.426;6.934;2022-12-18T15:13:23;2.00;99.90
35027;DHT22;60696;51.426;6.934;2022-12-18T15:15:50;2.00;99.90
35027;DHT22;60696;51.426;6.934;2022-12-18T15:18:19;1.90;99.90
35027;DHT22;60696;51.426;6.934;2022-12-18T15:26:07;1.80;99.90
35027;DHT22;60696;51.426;6.934;2022-12-18T15:28:37;1.90;99.90
35027;DHT22;60696;51.426;6.934;2022-12-18T15:31:19;1.80;99.90
35027;DHT22;60696;51.426;6.934;2022-12-18T15:36:18;1.80;99.90
35027;DHT22;60696;51.426;6.934;2022-12-18T15:38:48;1.70;99.90
35027;DHT22;60696;51.426;6.934;2022-12-18T15:41:19;1.70;99.90
35027;DHT22;60696;51.426;6.934;2022-12-18T15:43:46;1.70;99.90
35027;DHT22;60696;51.426;6.934;2022-12-18T15:46:17;1.60;99.90
35027;DHT22;60696;51.426;6.934;2022-12-18T15:48:48;1.60;99.90
35027;DHT22;60696;51.426;6.934;2022-12-18T15:51:31;1.60;99.90
35027;DHT22;60696;51.426;6.934;2022-12-18T15:54:08;1.60;99.90
35027;DHT22;60696;51.426;6.934;2022-12-18T15:56:35;1.60;99.90
35027;DHT22;60696;51.426;6.934;2022-12-18T15:59:20;1.50;99.90
35027;DHT22;60696;51.426;6.934;2022-12-18T16:01:48;1.50;99.90
35027;DHT22;60696;51.426;6.934;2022-12-18T16:04:19;1.50;99.90
35027;DHT22;60696;51.426;6.934;2022-12-18T16:06:46;1.50;99.90
35027;DHT22;60696;51.426;6.934;2022-12-18T16:09:12;1.50;99.90
35027;DHT22;60696;51.426;6.934;2022-12-18T16:11:39;1.50;99.90
35027;DHT22;60696;51.426;6.934;2022-12-18T16:14:21;1.40;99.90
35027;DHT22;60696;51.426;6.934;2022-12-18T16:17:02;1.40;99.90
35027;DHT22;60696;51.426;6.934;2022-12-18T16:19:29;1.30;99.90
35027;DHT22;60696;51.426;6.934;2022-12-18T16:21:56;1.30;99.90
35027;DHT22;60696;51.426;6.934;2022-12-18T16:24:25;1.30;99.90
35027;DHT22;60696;51.426;6.934;2022-12-18T16:26:51;1.30;99.90
35027;DHT22;60696;51.426;6.934;2022-12-18T16:29:18;1.30;99.90
35027;DHT22;60696;51.426;6.934;2022-12-18T16:31:44;1.30;99.90
35027;DHT22;60696;51.426;6.934;2022-12-18T16:34:21;1.20;99.90
35027;DHT22;60696;51.426;6.934;2022-12-18T16:36:48;1.20;99.90
35027;DHT22;60696;51.426;6.934;2022-12-18T16:39:14;1.20;99.90
35027;DHT22;60696;51.426;6.934;2022-12-18T16:41:40;1.20;99.90
35027;DHT22;60696;51.426;6.934;2022-12-18T16:44:06;1.20;99.90
35027;DHT22;60696;51.426;6.934;2022-12-18T16:46:31;1.10;99.90
35027;DHT22;60696;51.426;6.934;2022-12-18T16:48:58;1.10;99.90
35027;DHT22;60696;51.426;6.934;2022-12-18T16:51:25;1.10;99.90
35027;DHT22;60696;51.426;6.934;2022-12-18T16:53:51;1.10;99.90
35027;DHT22;60696;51.426;6.934;2022-12-18T16:56:17;1.10;99.90
35027;DHT22;60696;51.426;6.934;2022-12-18T16:58:43;1.10;99.90
35027;DHT22;60696;51.426;6.934;2022-12-18T17:01:10;1.00;99.90
35027;DHT22;60696;51.426;6.934;2022-12-18T17:03:36;1.00;99.90
35027;DHT22;60696;51.426;6.934;2022-12-18T17:06:05;1.00;99.90
35027;DHT22;60696;51.426;6.934;2022-12-18T17:08:31;1.00;99.90
35027;DHT22;60696;51.426;6.934;2022-12-18T17:11:04;1.00;99.90
35027;DHT22;60696;51.426;6.934;2022-12-18T17:13:30;1.00;99.90
35027;DHT22;60696;51.426;6.934;2022-12-18T17:16:01;1.00;99.90
35027;DHT22;60696;51.426;6.934;2022-12-18T17:18:27;1.00;99.90
35027;DHT22;60696;51.426;6.934;2022-12-18T17:21:00;0.90;99.90
35027;DHT22;60696;51.426;6.934;2022-12-18T17:23:27;0.90;99.90
35027;DHT22;60696;51.426;6.934;2022-12-18T17:25:54;0.90;99.90
35027;DHT22;60696;51.426;6.934;2022-12-18T17:28:21;0.90;99.90
35027;DHT22;60696;51.426;6.934;2022-12-18T17:31:11;0.90;99.90
35027;DHT22;60696;51.426;6.934;2022-12-18T17:36:34;0.90;99.90
35027;DHT22;60696;51.426;6.934;2022-12-18T17:39:07;0.90;99.90
35027;DHT22;60696;51.426;6.934;2022-12-18T17:41:35;0.80;99.90
35027;DHT22;60696;51.426;6.934;2022-12-18T17:47:19;0.70;99.90
35027;DHT22;60696;51.426;6.934;2022-12-18T17:50:20;0.80;99.90
35027;DHT22;60696;51.426;6.934;2022-12-18T17:52:56;0.80;99.90
35027;DHT22;60696;51.426;6.934;2022-12-18T17:55:41;0.80;99.90
35027;DHT22;60696;51.426;6.934;2022-12-18T17:58:40;0.70;99.90
35027;DHT22;60696;51.426;6.934;2022-12-18T18:04:42;0.70;99.90
35027;DHT22;60696;51.426;6.934;2022-12-18T18:07:18;0.70;99.90
35027;DHT22;60696;51.426;6.934;2022-12-18T18:09:49;0.60;99.90
35027;DHT22;60696;51.426;6.934;2022-12-18T18:12:18;0.60;99.90
35027;DHT22;60696;51.426;6.934;2022-12-18T18:15:02;0.60;99.90